createdAt,value
2022-09-16T00:00:35.036Z,1.17
2022-09-16T00:02:40.065Z,1.30
2022-09-16T00:04:42.672Z,1.40
2022-09-16T00:06:45.000Z,1.40
2022-09-16T00:08:50.848Z,1.10
2022-09-16T00:10:53.277Z,1.17
2022-09-16T00:12:55.604Z,1.70
2022-09-16T00:15:50.981Z,1.20
2022-09-16T00:17:53.572Z,1.53
2022-09-16T00:19:56.355Z,1.15
2022-09-16T00:21:58.645Z,1.30
2022-09-16T00:24:01.046Z,1.20
2022-09-16T00:26:04.531Z,1.20
2022-09-16T00:28:07.333Z,1.10
2022-09-16T00:30:09.992Z,0.80
2022-09-16T00:32:12.643Z,1.20
2022-09-16T00:34:14.952Z,1.00
2022-09-16T00:36:21.944Z,1.10
2022-09-16T00:38:24.247Z,1.43
2022-09-16T00:40:26.658Z,1.40
2022-09-16T00:42:29.503Z,1.47
2022-09-16T00:44:58.884Z,1.30
2022-09-16T00:47:01.263Z,1.30
2022-09-16T00:49:22.264Z,1.40
2022-09-16T00:51:25.497Z,1.23
2022-09-16T00:53:42.709Z,1.33
2022-09-16T00:55:45.925Z,2.10
2022-09-16T00:58:03.655Z,1.63
2022-09-16T01:00:09.434Z,1.17
2022-09-16T01:02:16.061Z,1.50
2022-09-16T01:04:22.798Z,1.60
2022-09-16T01:06:26.807Z,1.63
2022-09-16T01:08:29.134Z,1.50
2022-09-16T01:10:33.628Z,1.57
2022-09-16T01:12:37.277Z,1.33
2022-09-16T01:14:54.538Z,1.80
2022-09-16T01:17:23.323Z,2.10
2022-09-16T01:19:52.083Z,2.20
2022-09-16T01:22:43.156Z,1.70
2022-09-16T01:25:04.460Z,2.40
2022-09-16T01:27:34.373Z,2.10
2022-09-16T01:29:48.841Z,1.83
2022-09-16T01:32:03.196Z,2.53
2022-09-16T01:34:37.162Z,2.00
2022-09-16T01:36:48.818Z,1.90
2022-09-16T01:39:09.348Z,2.10
2022-09-16T01:41:14.751Z,2.33
2022-09-16T01:43:25.489Z,2.10
2022-09-16T01:46:01.091Z,1.70
2022-09-16T01:48:43.848Z,2.00
2022-09-16T01:50:53.033Z,1.83
2022-09-16T01:53:08.795Z,2.13
2022-09-16T01:55:22.706Z,1.93
2022-09-16T01:57:53.666Z,2.03
2022-09-16T02:00:02.908Z,2.43
2022-09-16T02:02:18.546Z,2.10
2022-09-16T02:04:27.138Z,2.40
2022-09-16T02:06:31.454Z,1.80
2022-09-16T02:08:51.917Z,2.38
2022-09-16T02:10:59.599Z,2.33
2022-09-16T02:13:11.883Z,2.60
2022-09-16T02:15:22.111Z,2.30
2022-09-16T02:17:28.393Z,2.60
2022-09-16T02:19:39.800Z,2.13
2022-09-16T02:21:45.921Z,2.33
2022-09-16T02:23:52.425Z,2.13
2022-09-16T02:25:55.878Z,2.10
2022-09-16T02:28:02.624Z,2.40
2022-09-16T02:30:17.032Z,2.70
2022-09-16T02:32:24.321Z,2.50
2022-09-16T02:34:36.128Z,2.30
2022-09-16T02:36:43.236Z,1.80
2022-09-16T02:38:49.641Z,2.22
2022-09-16T02:41:21.232Z,2.50
2022-09-16T02:43:24.586Z,2.60
2022-09-16T02:45:46.662Z,2.47
2022-09-16T02:48:03.727Z,3.83
2022-09-16T02:50:40.376Z,2.53
2022-09-16T02:53:04.245Z,2.30
2022-09-16T02:55:11.905Z,2.00
2022-09-16T02:57:15.082Z,2.20
2022-09-16T02:59:18.421Z,2.40
2022-09-16T03:01:22.999Z,2.13
2022-09-16T03:03:25.693Z,2.17
2022-09-16T03:05:31.282Z,2.23
2022-09-16T03:07:34.144Z,2.47
2022-09-16T03:09:39.690Z,2.17
2022-09-16T03:12:06.326Z,2.43
2022-09-16T03:14:20.339Z,1.93
2022-09-16T03:16:35.903Z,2.50
2022-09-16T03:18:55.828Z,2.40
2022-09-16T03:21:05.061Z,1.93
2022-09-16T03:23:21.994Z,2.50
2022-09-16T03:25:58.294Z,2.10
2022-09-16T03:28:19.592Z,2.30
2022-09-16T03:30:22.110Z,2.60
2022-09-16T03:32:30.454Z,2.17
2022-09-16T03:34:38.652Z,2.90
2022-09-16T03:37:04.843Z,1.80
2022-09-16T03:39:09.408Z,2.05
2022-09-16T03:41:13.652Z,2.10
2022-09-16T03:43:16.836Z,2.40
2022-09-16T03:45:21.730Z,2.20
2022-09-16T03:47:25.268Z,2.17
2022-09-16T03:49:27.606Z,3.90
2022-09-16T03:51:29.844Z,2.37
2022-09-16T03:53:32.198Z,2.23
2022-09-16T03:55:34.590Z,2.57
2022-09-16T03:57:37.461Z,2.33
2022-09-16T03:59:39.782Z,2.20
2022-09-16T04:01:42.069Z,2.13
2022-09-16T04:03:44.536Z,2.30
2022-09-16T04:05:47.426Z,2.30
2022-09-16T04:07:50.141Z,2.50
2022-09-16T04:09:52.535Z,2.45
2022-09-16T04:11:54.841Z,1.90
2022-09-16T04:13:57.150Z,2.10
2022-09-16T04:16:00.587Z,2.30
2022-09-16T04:18:03.080Z,2.20
2022-09-16T04:20:08.429Z,2.37
2022-09-16T04:22:10.734Z,2.27
2022-09-16T04:24:13.685Z,2.50
2022-09-16T04:26:16.582Z,2.47
2022-09-16T04:28:18.841Z,2.13
2022-09-16T04:30:21.143Z,1.80
2022-09-16T04:32:24.215Z,2.30
2022-09-16T04:34:28.109Z,2.27
2022-09-16T04:36:30.570Z,2.00
2022-09-16T04:38:33.290Z,2.67
2022-09-16T04:40:35.641Z,2.30
2022-09-16T04:42:38.024Z,2.50
2022-09-16T04:44:40.463Z,2.50
2022-09-16T04:46:42.905Z,2.13
2022-09-16T04:48:48.616Z,2.20
2022-09-16T04:51:08.847Z,2.40
2022-09-16T04:53:11.172Z,2.30
2022-09-16T04:55:13.458Z,2.70
2022-09-16T04:57:15.889Z,2.30
2022-09-16T04:59:18.250Z,2.53
2022-09-16T05:01:24.164Z,2.20
2022-09-16T05:03:26.694Z,2.23
2022-09-16T05:05:29.085Z,2.00
2022-09-16T05:07:31.461Z,2.00
2022-09-16T05:09:45.307Z,2.00
2022-09-16T05:11:47.665Z,2.37
2022-09-16T05:13:50.055Z,2.60
2022-09-16T05:15:52.358Z,2.10
2022-09-16T05:17:55.095Z,2.70
2022-09-16T05:19:58.294Z,2.50
2022-09-16T05:22:00.815Z,2.47
2022-09-16T05:24:05.952Z,1.80
2022-09-16T05:26:12.221Z,1.70
2022-09-16T05:28:14.561Z,1.70
2022-09-16T05:30:17.529Z,2.30
2022-09-16T05:32:19.864Z,2.22
2022-09-16T05:34:28.770Z,1.80
2022-09-16T05:36:34.044Z,1.90
2022-09-16T05:38:36.503Z,2.70
2022-09-16T05:40:38.871Z,2.37
2022-09-16T05:42:41.181Z,3.80
2022-09-16T05:44:43.392Z,3.13
2022-09-16T05:46:45.711Z,3.40
2022-09-16T05:48:48.978Z,3.07
2022-09-16T05:50:56.724Z,3.63
2022-09-16T05:52:59.011Z,2.60
2022-09-16T05:55:01.496Z,2.27
2022-09-16T05:57:07.220Z,2.58
2022-09-16T05:59:13.928Z,2.57
2022-09-16T06:01:19.022Z,2.80
2022-09-16T06:03:21.412Z,1.90
2022-09-16T06:05:33.572Z,2.60
2022-09-16T06:07:36.080Z,2.63
2022-09-16T06:09:38.437Z,2.83
2022-09-16T06:11:43.828Z,2.53
2022-09-16T06:13:46.187Z,3.00
2022-09-16T06:15:51.202Z,2.20
2022-09-16T06:17:54.278Z,2.30
2022-09-16T06:19:56.536Z,2.80
2022-09-16T06:21:58.824Z,2.47
2022-09-16T06:24:01.147Z,2.40
2022-09-16T06:27:02.361Z,2.37
2022-09-16T06:29:08.401Z,2.37
2022-09-16T06:31:16.412Z,3.20
2022-09-16T06:33:18.754Z,2.53
2022-09-16T06:35:54.545Z,3.67
2022-09-16T06:37:56.860Z,2.70
2022-09-16T06:39:59.159Z,3.23
2022-09-16T06:42:01.437Z,2.53
2022-09-16T06:44:23.313Z,2.35
2022-09-16T06:46:27.449Z,2.27
2022-09-16T06:48:33.380Z,1.87
2022-09-16T06:50:35.714Z,2.20
2022-09-16T06:52:38.002Z,1.77
2022-09-16T06:54:40.331Z,2.10
2022-09-16T06:56:42.592Z,1.63
2022-09-16T06:58:49.491Z,1.77
2022-09-16T07:00:51.905Z,1.77
2022-09-16T07:02:54.154Z,2.17
2022-09-16T07:04:56.611Z,2.10
2022-09-16T07:07:10.027Z,2.20
2022-09-16T07:09:13.685Z,2.30
2022-09-16T07:11:23.227Z,2.00
2022-09-16T07:13:26.215Z,2.30
2022-09-16T07:15:56.316Z,2.17
2022-09-16T07:18:01.946Z,2.83
2022-09-16T07:20:04.427Z,3.07
2022-09-16T07:22:06.683Z,2.00
2022-09-16T07:24:11.193Z,2.93
2022-09-16T07:26:19.710Z,2.57
2022-09-16T07:28:22.006Z,2.37
2022-09-16T07:30:25.355Z,2.78
2022-09-16T07:32:27.946Z,3.10
2022-09-16T07:34:31.042Z,2.70
2022-09-16T07:36:37.404Z,2.47
2022-09-16T07:38:40.067Z,2.40
2022-09-16T07:40:42.500Z,2.50
2022-09-16T07:42:44.942Z,2.20
2022-09-16T07:44:47.393Z,2.30
2022-09-16T07:46:51.497Z,2.60
2022-09-16T07:48:54.786Z,2.03
2022-09-16T07:51:13.030Z,2.30
2022-09-16T07:53:15.258Z,2.83
2022-09-16T07:55:17.553Z,2.70
2022-09-16T07:57:19.835Z,2.67
2022-09-16T07:59:49.948Z,2.20
2022-09-16T08:01:52.367Z,1.80
2022-09-16T08:03:56.220Z,2.33
2022-09-16T08:06:16.783Z,2.20
2022-09-16T08:08:19.239Z,2.10
2022-09-16T08:10:21.592Z,2.20
2022-09-16T08:12:24.281Z,2.30
2022-09-16T08:14:35.444Z,2.30
2022-09-16T08:16:37.723Z,1.90
2022-09-16T08:18:41.125Z,1.87
2022-09-16T08:20:43.581Z,1.80
2022-09-16T08:22:45.978Z,1.73
2022-09-16T08:25:17.628Z,1.97
2022-09-16T08:27:20.177Z,1.98
2022-09-16T08:29:25.138Z,2.10
2022-09-16T08:31:27.646Z,2.10
2022-09-16T08:33:30.283Z,1.80
2022-09-16T08:35:32.639Z,2.30
2022-09-16T08:37:35.949Z,1.80
2022-09-16T08:39:49.088Z,2.13
2022-09-16T08:42:09.575Z,1.80
2022-09-16T08:44:54.190Z,1.50
2022-09-16T08:47:49.048Z,1.98
2022-09-16T08:49:53.214Z,2.03
2022-09-16T08:51:57.097Z,1.50
2022-09-16T08:54:05.792Z,1.73
2022-09-16T08:56:15.921Z,1.67
2022-09-16T08:58:26.361Z,1.87
2022-09-16T09:00:29.306Z,1.70
2022-09-16T09:02:48.570Z,1.77
2022-09-16T09:04:58.274Z,1.43
2022-09-16T09:07:35.641Z,1.73
2022-09-16T09:09:48.148Z,1.47
2022-09-16T09:12:09.535Z,1.50
2022-09-16T09:14:33.258Z,1.47
2022-09-16T09:16:48.987Z,1.40
2022-09-16T09:18:53.791Z,1.43
2022-09-16T09:21:01.898Z,1.40
2022-09-16T09:23:22.576Z,1.50
2022-09-16T09:25:41.785Z,1.33
2022-09-16T09:27:51.724Z,1.60
2022-09-16T09:30:13.896Z,1.27
2022-09-16T09:32:53.408Z,1.60
2022-09-16T09:35:02.449Z,2.13
2022-09-16T09:37:29.474Z,1.50
2022-09-16T09:39:48.791Z,1.53
2022-09-16T09:42:12.063Z,1.50
2022-09-16T09:44:40.888Z,1.67
2022-09-16T09:46:48.529Z,1.90
2022-09-16T09:48:57.445Z,1.57
2022-09-16T09:51:20.459Z,1.10
2022-09-16T09:53:25.649Z,1.50
2022-09-16T09:55:32.819Z,0.90
2022-09-16T09:57:40.905Z,1.00
2022-09-16T09:59:55.295Z,1.10
2022-09-16T10:02:00.244Z,1.33
2022-09-16T10:04:14.514Z,1.10
2022-09-16T10:06:35.656Z,0.83
2022-09-16T10:08:48.669Z,1.60
2022-09-16T10:10:56.586Z,1.20
2022-09-16T10:13:09.560Z,1.30
2022-09-16T10:15:28.799Z,1.80
2022-09-16T10:17:32.769Z,1.03
2022-09-16T10:20:07.222Z,1.20
2022-09-16T10:22:31.698Z,1.53
2022-09-16T10:24:40.163Z,1.30
2022-09-16T10:26:42.530Z,1.13
2022-09-16T10:29:17.910Z,1.30
2022-09-16T10:31:21.397Z,1.33
2022-09-16T10:33:36.873Z,2.13
2022-09-16T10:35:42.120Z,1.80
2022-09-16T10:38:01.380Z,1.73
2022-09-16T10:40:06.950Z,1.67
2022-09-16T10:42:26.653Z,1.73
2022-09-16T10:44:34.149Z,1.40
2022-09-16T10:46:36.537Z,1.80
2022-09-16T10:48:42.363Z,1.40
2022-09-16T10:51:02.335Z,0.93
2022-09-16T10:53:23.416Z,1.20
2022-09-16T10:55:30.078Z,0.90
2022-09-16T10:57:36.414Z,0.80
2022-09-16T10:59:38.627Z,1.50
2022-09-16T11:02:02.289Z,0.97
2022-09-16T11:04:13.416Z,1.00
2022-09-16T11:06:31.861Z,1.00
2022-09-16T11:09:41.486Z,1.13
2022-09-16T11:12:25.252Z,1.40
2022-09-16T11:14:40.758Z,1.10
2022-09-16T11:17:22.495Z,1.40
2022-09-16T11:20:06.156Z,1.27
2022-09-16T11:22:37.101Z,1.23
2022-09-16T11:24:55.784Z,1.30
2022-09-16T11:27:24.377Z,1.13
2022-09-16T11:29:44.739Z,1.30
2022-09-16T11:32:14.768Z,1.60
2022-09-16T11:34:43.785Z,1.20
2022-09-16T11:37:03.104Z,1.70
2022-09-16T11:39:26.545Z,1.70
2022-09-16T11:41:38.354Z,1.30
2022-09-16T11:43:59.125Z,1.30
2022-09-16T11:46:34.156Z,1.60
2022-09-16T11:49:03.069Z,1.20
2022-09-16T11:51:20.179Z,1.67
2022-09-16T11:54:07.251Z,0.90
2022-09-16T11:57:01.047Z,1.40
2022-09-16T11:59:32.045Z,0.80
2022-09-16T12:01:45.811Z,1.20
2022-09-16T12:03:58.830Z,0.93
2022-09-16T12:06:08.997Z,0.90
2022-09-16T12:08:24.401Z,0.80
2022-09-16T12:10:42.194Z,1.10
2022-09-16T12:12:54.026Z,1.17
2022-09-16T12:15:06.055Z,1.20
2022-09-16T12:17:32.187Z,1.27
2022-09-16T12:19:44.633Z,0.90
2022-09-16T12:22:04.354Z,1.00
2022-09-16T12:24:28.358Z,0.80
2022-09-16T12:26:49.064Z,0.90
2022-09-16T12:29:28.025Z,0.90
2022-09-16T12:32:00.368Z,1.23
2022-09-16T12:34:13.705Z,1.37
2022-09-16T12:36:23.874Z,0.90
2022-09-16T12:38:26.702Z,1.10
2022-09-16T12:40:38.350Z,0.90
2022-09-16T12:43:01.302Z,0.83
2022-09-16T12:45:22.104Z,1.73
2022-09-16T12:47:57.794Z,1.40
2022-09-16T12:50:08.989Z,1.00
2022-09-16T12:52:20.662Z,0.90
2022-09-16T12:54:25.889Z,1.80
2022-09-16T12:56:53.886Z,1.15
2022-09-16T12:59:14.505Z,1.10
2022-09-16T13:01:38.635Z,1.00
2022-09-16T13:03:45.097Z,1.37
2022-09-16T13:05:50.924Z,1.23
2022-09-16T13:07:56.071Z,1.37
2022-09-16T13:10:26.458Z,1.03
2022-09-16T13:12:43.778Z,1.07
2022-09-16T13:14:54.057Z,0.90
2022-09-16T13:16:59.340Z,0.70
2022-09-16T13:19:28.350Z,0.73
2022-09-16T13:21:47.397Z,1.00
2022-09-16T13:24:13.498Z,0.90
2022-09-16T13:26:15.798Z,0.80
2022-09-16T13:28:26.479Z,0.87
2022-09-16T13:30:38.846Z,0.83
2022-09-16T13:32:52.568Z,1.00
2022-09-16T13:35:02.174Z,1.40
2022-09-16T13:37:15.561Z,1.40
2022-09-16T13:39:38.360Z,1.23
2022-09-16T13:41:44.154Z,1.37
2022-09-16T13:43:51.785Z,1.07
2022-09-16T13:46:02.681Z,3.00
2022-09-16T13:48:24.396Z,1.27
2022-09-16T13:50:27.264Z,1.20
2022-09-16T13:52:34.700Z,1.27
2022-09-16T13:55:08.923Z,1.10
2022-09-16T13:57:37.551Z,1.20
2022-09-16T14:00:15.665Z,0.90
2022-09-16T14:02:44.855Z,1.57
2022-09-16T14:05:17.776Z,1.10
2022-09-16T14:07:22.963Z,1.10
2022-09-16T14:09:54.777Z,0.90
2022-09-16T14:12:05.300Z,0.80
2022-09-16T14:16:41.460Z,1.07
2022-09-16T14:18:53.091Z,1.05
2022-09-16T14:21:05.650Z,1.13
2022-09-16T14:23:19.316Z,1.50
2022-09-16T14:25:34.940Z,1.20
2022-09-16T14:27:39.297Z,1.10
2022-09-16T14:30:05.239Z,1.00
2022-09-16T14:32:13.669Z,1.43
2022-09-16T14:34:38.905Z,1.20
2022-09-16T14:36:41.541Z,1.33
2022-09-16T14:38:56.066Z,8.33
2022-09-16T14:40:58.461Z,15.07
2022-09-16T14:43:07.141Z,7.00
2022-09-16T14:45:22.246Z,14.37
2022-09-16T14:47:50.660Z,12.50
2022-09-16T14:50:12.435Z,15.43
2022-09-16T14:52:28.245Z,1.60
2022-09-16T14:54:31.441Z,1.60
2022-09-16T14:56:33.728Z,1.30
2022-09-16T14:58:36.554Z,0.80
2022-09-16T15:00:52.516Z,1.17
2022-09-16T15:02:59.547Z,1.50
2022-09-16T15:05:21.442Z,0.70
2022-09-16T15:07:32.615Z,1.53
2022-09-16T15:09:57.398Z,1.30
2022-09-16T15:12:01.404Z,0.97
2022-09-16T15:14:53.361Z,0.90
2022-09-16T15:17:01.353Z,1.57
2022-09-16T15:19:06.218Z,0.80
2022-09-16T15:21:33.207Z,1.10
2022-09-16T15:23:38.480Z,1.20
2022-09-16T15:25:40.758Z,1.40
2022-09-16T15:27:43.226Z,1.13
2022-09-16T15:30:23.765Z,1.50
2022-09-16T15:32:31.705Z,1.43
2022-09-16T15:34:34.214Z,1.90
2022-09-16T15:36:42.874Z,2.23
2022-09-16T15:38:45.135Z,2.80
2022-09-16T15:40:47.520Z,2.55
2022-09-16T15:43:21.877Z,1.93
2022-09-16T15:45:24.183Z,1.70
2022-09-16T15:47:30.199Z,2.27
2022-09-16T15:49:37.977Z,1.60
2022-09-16T15:51:47.758Z,1.60
2022-09-16T15:53:51.045Z,1.33
2022-09-16T15:56:01.997Z,3.27
2022-09-16T15:58:32.870Z,3.10
2022-09-16T16:01:02.680Z,2.50
2022-09-16T16:03:18.967Z,1.37
2022-09-16T16:05:29.704Z,1.73
2022-09-16T16:07:47.343Z,2.00
2022-09-16T16:09:50.216Z,2.90
2022-09-16T16:11:52.735Z,3.57
2022-09-16T16:14:01.138Z,3.00
2022-09-16T16:16:04.462Z,2.63
2022-09-16T16:18:08.777Z,2.10
2022-09-16T16:20:13.379Z,2.30
2022-09-16T16:22:45.516Z,2.73
2022-09-16T16:24:48.158Z,2.60
2022-09-16T16:26:56.088Z,3.80
2022-09-16T16:28:59.040Z,2.80
2022-09-16T16:31:17.837Z,3.20
2022-09-16T16:33:20.186Z,2.90
2022-09-16T16:35:22.519Z,1.70
2022-09-16T16:39:49.123Z,1.97
2022-09-16T16:41:54.093Z,1.75
2022-09-16T16:43:56.378Z,2.03
2022-09-16T16:45:59.016Z,1.67
2022-09-16T16:48:01.410Z,1.87
2022-09-16T16:50:03.850Z,1.77
2022-09-16T16:52:07.045Z,1.13
2022-09-16T16:54:11.763Z,1.27
2022-09-16T16:56:15.647Z,3.80
2022-09-16T16:58:18.305Z,1.52
2022-09-16T17:00:20.565Z,2.30
2022-09-16T17:02:22.943Z,1.50
2022-09-16T17:04:26.302Z,1.60
2022-09-16T17:06:29.582Z,1.47
2022-09-16T17:08:31.936Z,1.90
2022-09-16T17:10:34.283Z,1.08
2022-09-16T17:12:37.177Z,1.80
2022-09-16T17:14:39.437Z,1.80
2022-09-16T17:16:41.906Z,2.00
2022-09-16T17:18:44.309Z,1.50
2022-09-16T17:20:46.533Z,1.50
2022-09-16T17:22:49.027Z,1.57
2022-09-16T17:24:51.297Z,1.67
2022-09-16T17:26:53.584Z,1.63
2022-09-16T17:28:59.099Z,1.57
2022-09-16T17:31:01.508Z,3.30
2022-09-16T17:33:03.892Z,2.20
2022-09-16T17:35:06.909Z,1.20
2022-09-16T17:37:09.252Z,1.67
2022-09-16T17:39:20.667Z,1.80
2022-09-16T17:41:23.380Z,1.40
2022-09-16T17:43:31.402Z,1.20
2022-09-16T17:45:35.034Z,1.20
2022-09-16T17:47:37.428Z,1.20
2022-09-16T17:49:39.760Z,1.40
2022-09-16T17:51:42.232Z,2.27
2022-09-16T17:53:44.531Z,1.20
2022-09-16T17:55:47.262Z,1.30
2022-09-16T17:57:49.466Z,1.23
2022-09-16T17:59:52.789Z,1.15
2022-09-16T18:01:55.033Z,1.20
2022-09-16T18:03:57.640Z,2.73
2022-09-16T18:06:12.522Z,1.10
2022-09-16T18:08:14.883Z,1.17
2022-09-16T18:10:17.784Z,0.70
2022-09-16T18:12:20.425Z,0.87
2022-09-16T18:14:36.039Z,1.20
2022-09-16T18:16:38.590Z,0.90
2022-09-16T18:18:42.330Z,1.00
2022-09-16T18:20:44.646Z,1.10
2022-09-16T18:22:48.569Z,1.03
2022-09-16T18:24:57.828Z,1.00
2022-09-16T18:27:02.401Z,1.20
2022-09-16T18:29:10.094Z,1.33
2022-09-16T18:31:23.813Z,1.13
2022-09-16T18:33:26.213Z,1.30
2022-09-16T18:35:31.545Z,0.80
2022-09-16T18:37:33.836Z,1.07
2022-09-16T18:39:36.131Z,0.83
2022-09-16T18:41:40.566Z,1.30
2022-09-16T18:43:45.823Z,1.00
2022-09-16T18:45:48.087Z,1.20
2022-09-16T18:47:53.022Z,0.80
2022-09-16T18:49:55.312Z,1.17
2022-09-16T18:51:57.861Z,1.20
2022-09-16T18:54:03.315Z,0.77
2022-09-16T18:56:05.833Z,0.90
2022-09-16T18:58:08.203Z,0.90
2022-09-16T19:00:11.196Z,0.80
2022-09-16T19:02:14.504Z,1.23
2022-09-16T19:04:19.629Z,0.80
2022-09-16T19:06:23.205Z,1.00
2022-09-16T19:08:25.561Z,1.13
2022-09-16T19:10:27.895Z,0.80
2022-09-16T19:12:30.163Z,1.30
2022-09-16T19:14:32.882Z,1.00
2022-09-16T19:16:40.485Z,0.80
2022-09-16T19:18:42.798Z,1.00
2022-09-16T19:20:46.053Z,0.90
2022-09-16T19:22:48.306Z,0.90
2022-09-16T19:24:52.754Z,0.90
2022-09-16T19:26:55.821Z,0.90
2022-09-16T19:28:59.672Z,1.10
2022-09-16T19:31:20.032Z,1.23
2022-09-16T19:33:22.394Z,1.07
2022-09-16T19:35:40.727Z,0.90
2022-09-16T19:37:42.986Z,1.30
2022-09-16T19:39:45.301Z,1.20
2022-09-16T19:41:47.562Z,1.10
2022-09-16T19:43:54.882Z,1.10
2022-09-16T19:46:09.534Z,0.83
2022-09-16T19:48:25.009Z,3.23
2022-09-16T19:50:27.327Z,1.10
2022-09-16T19:52:45.573Z,0.93
2022-09-16T19:54:47.776Z,1.00
2022-09-16T19:56:51.040Z,1.10
2022-09-16T19:58:54.692Z,0.80
2022-09-16T20:01:01.566Z,0.90
2022-09-16T20:03:04.083Z,1.20
2022-09-16T20:05:09.050Z,1.10
2022-09-16T20:07:16.898Z,1.30
2022-09-16T20:09:19.951Z,0.80
2022-09-16T20:11:24.943Z,1.30
2022-09-16T20:13:27.335Z,1.13
2022-09-16T20:15:29.577Z,2.60
2022-09-16T20:17:38.390Z,1.00
2022-09-16T20:19:40.649Z,1.03
2022-09-16T20:21:43.277Z,0.83
2022-09-16T20:23:46.449Z,1.07
2022-09-16T20:25:55.699Z,1.43
2022-09-16T20:27:57.944Z,1.03
2022-09-16T20:30:00.173Z,1.53
2022-09-16T20:32:02.781Z,1.20
2022-09-16T20:34:05.918Z,1.20
2022-09-16T20:36:19.967Z,1.20
2022-09-16T20:38:22.367Z,1.30
2022-09-16T20:40:24.804Z,1.10
2022-09-16T20:42:27.094Z,1.13
2022-09-16T20:44:29.318Z,1.33
2022-09-16T20:46:37.282Z,1.63
2022-09-16T20:49:24.658Z,0.90
2022-09-16T20:51:29.525Z,1.30
2022-09-16T20:53:31.995Z,1.10
2022-09-16T20:55:34.378Z,1.33
2022-09-16T20:57:36.655Z,1.20
2022-09-16T20:59:39.005Z,1.30
2022-09-16T21:01:42.059Z,1.20
2022-09-16T21:03:45.574Z,1.67
2022-09-16T21:05:47.825Z,1.27
2022-09-16T21:07:50.106Z,1.00
2022-09-16T21:09:59.423Z,1.30
2022-09-16T21:12:02.182Z,1.30
2022-09-16T21:14:07.733Z,1.37
2022-09-16T21:16:12.342Z,1.07
2022-09-16T21:18:14.678Z,1.27
2022-09-16T21:21:18.242Z,2.05
2022-09-16T21:23:21.587Z,1.20
2022-09-16T21:25:24.784Z,1.30
2022-09-16T21:27:27.057Z,1.40
2022-09-16T21:29:31.071Z,2.10
2022-09-16T21:31:34.606Z,1.13
2022-09-16T21:33:45.586Z,1.60
2022-09-16T21:35:51.738Z,1.07
2022-09-16T21:37:54.317Z,1.37
2022-09-16T21:39:56.615Z,1.07
2022-09-16T21:41:58.876Z,2.60
2022-09-16T21:44:01.908Z,1.17
2022-09-16T21:46:20.738Z,1.77
2022-09-16T21:48:23.834Z,1.50
2022-09-16T21:50:26.290Z,1.20
2022-09-16T21:52:28.648Z,1.53
2022-09-16T21:54:31.256Z,1.37
2022-09-16T21:56:36.124Z,1.20
2022-09-16T21:58:38.728Z,1.10
2022-09-16T22:00:41.097Z,1.40
2022-09-16T22:02:43.511Z,1.27
2022-09-16T22:04:45.802Z,1.00
2022-09-16T22:06:50.002Z,1.33
2022-09-16T22:08:53.755Z,1.50
2022-09-16T22:11:12.189Z,1.20
2022-09-16T22:13:14.455Z,1.37
2022-09-16T22:15:16.824Z,1.70
2022-09-16T22:17:20.968Z,1.30
2022-09-16T22:19:23.236Z,1.10
2022-09-16T22:21:27.566Z,1.27
2022-09-16T22:23:30.158Z,1.30
2022-09-16T22:25:35.378Z,1.20
2022-09-16T22:27:37.627Z,1.37
2022-09-16T22:29:39.947Z,1.13
2022-09-16T22:31:42.463Z,1.33
2022-09-16T22:33:46.345Z,1.30
2022-09-16T22:35:49.312Z,1.20
2022-09-16T22:37:51.650Z,1.10
2022-09-16T22:39:53.956Z,1.13
2022-09-16T22:41:56.746Z,1.50
2022-09-16T22:43:59.388Z,1.27
2022-09-16T22:46:10.940Z,1.43
2022-09-16T22:48:13.402Z,1.50
2022-09-16T22:50:15.916Z,2.30
2022-09-16T22:52:18.146Z,1.77
2022-09-16T22:54:21.012Z,1.07
2022-09-16T22:56:31.965Z,1.07
2022-09-16T22:58:34.742Z,1.40
2022-09-16T23:00:40.347Z,1.10
2022-09-16T23:02:42.845Z,1.20
2022-09-16T23:04:45.147Z,1.10
2022-09-16T23:06:47.663Z,0.90
2022-09-16T23:08:50.337Z,1.20
2022-09-16T23:10:53.113Z,1.00
2022-09-16T23:12:55.546Z,1.90
2022-09-16T23:15:06.080Z,1.20
2022-09-16T23:17:08.364Z,1.43
2022-09-16T23:19:11.939Z,1.40
2022-09-16T23:21:17.912Z,1.50
2022-09-16T23:23:20.174Z,1.20
2022-09-16T23:25:23.342Z,1.20
2022-09-16T23:27:25.580Z,1.10
2022-09-16T23:29:27.878Z,1.30
2022-09-16T23:31:34.086Z,1.60
2022-09-16T23:33:37.083Z,1.27
2022-09-16T23:35:44.768Z,1.20
2022-09-16T23:37:47.204Z,1.07
2022-09-16T23:39:50.147Z,1.30
2022-09-16T23:41:52.461Z,1.40
2022-09-16T23:43:56.494Z,1.30
2022-09-16T23:46:00.383Z,1.20
2022-09-16T23:48:04.190Z,1.40
2022-09-16T23:50:06.681Z,1.80
2022-09-16T23:52:08.951Z,2.40
2022-09-16T23:54:11.197Z,1.37
2022-09-16T23:56:15.936Z,2.00
2022-09-16T23:58:25.082Z,1.30
